EZY97K EGLL-LFPG
Flight info
| Callsign | EZY97K |
|---|---|
| Flight time | 0h 39m |
| Altitude | 25000 |
| Route | MODMI M185 MID UL612 BOGNA DCT HARDY UM605 BIBAX |
| Aircraft | A320/M-SDE3FGHIRWY/LB1 |
Departure
| Time | 2026-05-08 13:44 |
|---|---|
| Airport | London Heathrow Airport (EGLL) |
Arrival
| Time | 2026-05-08 14:23 |
|---|---|
| Airport | Charles de Gaulle International Airport (LFPG) |
| Time | Latitude | Longitude | Altitude | Speed | Heading |
|---|---|---|---|---|---|
| 2026-05-08 13:12 | 51.46996 | -0.44681 | 86 ft | 0 kts | 269° |
| 2026-05-08 13:31 | 51.46996 | -0.44672 | 86 ft | 4 kts | 269° |
| 2026-05-08 13:31 | 51.46997 | -0.44629 | 86 ft | 4 kts | 270° |
| 2026-05-08 13:31 | 51.46997 | -0.44593 | 88 ft | 4 kts | 262° |
| 2026-05-08 13:31 | 51.47006 | -0.44562 | 89 ft | 4 kts | 205° |
| 2026-05-08 13:32 | 51.47029 | -0.44556 | 86 ft | 4 kts | 180° |
| 2026-05-08 13:32 | 51.47037 | -0.44556 | 90 ft | 0 kts | 180° |
| 2026-05-08 13:35 | 51.47016 | -0.44556 | 86 ft | 11 kts | 180° |
| 2026-05-08 13:35 | 51.46931 | -0.44555 | 86 ft | 13 kts | 180° |
| 2026-05-08 13:36 | 51.46832 | -0.44554 | 87 ft | 15 kts | 179° |
| 2026-05-08 13:36 | 51.46723 | -0.44552 | 86 ft | 17 kts | 179° |
| 2026-05-08 13:36 | 51.46664 | -0.44664 | 86 ft | 13 kts | 269° |
| 2026-05-08 13:36 | 51.46664 | -0.44809 | 87 ft | 16 kts | 269° |
| 2026-05-08 13:37 | 51.46662 | -0.45039 | 86 ft | 22 kts | 269° |
| 2026-05-08 13:37 | 51.46660 | -0.45281 | 86 ft | 22 kts | 269° |
| 2026-05-08 13:37 | 51.46659 | -0.45513 | 90 ft | 20 kts | 270° |
| 2026-05-08 13:37 | 51.46659 | -0.45726 | 88 ft | 18 kts | 270° |
| 2026-05-08 13:38 | 51.46658 | -0.45919 | 87 ft | 16 kts | 269° |
| 2026-05-08 13:38 | 51.46658 | -0.46103 | 90 ft | 16 kts | 270° |
| 2026-05-08 13:38 | 51.46658 | -0.46286 | 88 ft | 19 kts | 270° |
| 2026-05-08 13:38 | 51.46657 | -0.46496 | 88 ft | 18 kts | 269° |
| 2026-05-08 13:39 | 51.46656 | -0.46756 | 86 ft | 24 kts | 271° |
| 2026-05-08 13:39 | 51.46656 | -0.47020 | 90 ft | 24 kts | 269° |
| 2026-05-08 13:39 | 51.46654 | -0.47297 | 86 ft | 25 kts | 269° |
| 2026-05-08 13:39 | 51.46653 | -0.47584 | 86 ft | 25 kts | 270° |
| 2026-05-08 13:40 | 51.46654 | -0.47867 | 86 ft | 25 kts | 270° |
| 2026-05-08 13:40 | 51.46652 | -0.48146 | 86 ft | 25 kts | 269° |
| 2026-05-08 13:40 | 51.46650 | -0.48425 | 86 ft | 26 kts | 269° |
| 2026-05-08 13:40 | 51.46646 | -0.48706 | 88 ft | 19 kts | 261° |
| 2026-05-08 13:41 | 51.46624 | -0.48750 | 91 ft | 0 kts | 200° |
| 2026-05-08 13:42 | 51.46593 | -0.48768 | 86 ft | 8 kts | 200° |
| 2026-05-08 13:42 | 51.46506 | -0.48765 | 87 ft | 18 kts | 150° |
| 2026-05-08 13:43 | 51.46479 | -0.48624 | 86 ft | 0 kts | 89° |
| 2026-05-08 13:43 | 51.46479 | -0.48623 | 86 ft | 1 kts | 89° |
| 2026-05-08 13:43 | 51.46481 | -0.48403 | 87 ft | 54 kts | 89° |
| 2026-05-08 13:44 | 51.46482 | -0.47375 | 86 ft | 119 kts | 90° |
| 2026-05-08 13:44 | 51.46518 | -0.45859 | 259 ft | 152 kts | 90° |
| 2026-05-08 13:44 | 51.46511 | -0.44069 | 783 ft | 164 kts | 94° |
| 2026-05-08 13:44 | 51.46455 | -0.42256 | 1453 ft | 172 kts | 98° |
| 2026-05-08 13:45 | 51.46247 | -0.40334 | 2060 ft | 181 kts | 113° |
| 2026-05-08 13:45 | 51.45646 | -0.38443 | 2384 ft | 202 kts | 123° |
| 2026-05-08 13:45 | 51.44625 | -0.36767 | 2729 ft | 224 kts | 144° |
| 2026-05-08 13:45 | 51.43180 | -0.35533 | 3238 ft | 245 kts | 160° |
| 2026-05-08 13:46 | 51.41478 | -0.35067 | 4079 ft | 252 kts | 181° |
| 2026-05-08 13:46 | 51.39762 | -0.35655 | 5012 ft | 257 kts | 203° |
| 2026-05-08 13:46 | 51.38153 | -0.36926 | 5960 ft | 258 kts | 206° |
| 2026-05-08 13:46 | 51.36538 | -0.38209 | 6862 ft | 260 kts | 206° |
| 2026-05-08 13:47 | 51.34895 | -0.39504 | 7703 ft | 265 kts | 206° |
| 2026-05-08 13:47 | 51.33230 | -0.40815 | 8580 ft | 269 kts | 206° |
| 2026-05-08 13:47 | 51.31522 | -0.42094 | 9419 ft | 273 kts | 199° |
| 2026-05-08 13:47 | 51.29640 | -0.42518 | 10259 ft | 278 kts | 176° |
| 2026-05-08 13:48 | 51.27647 | -0.42067 | 10591 ft | 301 kts | 172° |
| 2026-05-08 13:48 | 51.25517 | -0.41453 | 10954 ft | 319 kts | 171° |
| 2026-05-08 13:48 | 51.23317 | -0.40775 | 11602 ft | 326 kts | 170° |
| 2026-05-08 13:48 | 51.21072 | -0.40078 | 12344 ft | 330 kts | 170° |
| 2026-05-08 13:49 | 51.18797 | -0.39382 | 13036 ft | 335 kts | 171° |
| 2026-05-08 13:49 | 51.16494 | -0.38688 | 13806 ft | 339 kts | 170° |
| 2026-05-08 13:49 | 51.14149 | -0.37989 | 14437 ft | 343 kts | 171° |
| 2026-05-08 13:49 | 51.11794 | -0.37293 | 15047 ft | 348 kts | 170° |
| 2026-05-08 13:50 | 51.09378 | -0.36582 | 15748 ft | 349 kts | 171° |
| 2026-05-08 13:50 | 51.06978 | -0.35876 | 16396 ft | 353 kts | 170° |
| 2026-05-08 13:50 | 51.04550 | -0.35165 | 17057 ft | 356 kts | 171° |
| 2026-05-08 13:50 | 51.02113 | -0.34453 | 17760 ft | 357 kts | 171° |
| 2026-05-08 13:51 | 50.99688 | -0.33742 | 18356 ft | 362 kts | 170° |
| 2026-05-08 13:51 | 50.97159 | -0.33001 | 18854 ft | 366 kts | 170° |
| 2026-05-08 13:51 | 50.94636 | -0.32260 | 19325 ft | 372 kts | 170° |
| 2026-05-08 13:51 | 50.92076 | -0.31507 | 19771 ft | 377 kts | 171° |
| 2026-05-08 13:52 | 50.89480 | -0.30753 | 20236 ft | 382 kts | 172° |
| 2026-05-08 13:52 | 50.86847 | -0.29988 | 20690 ft | 387 kts | 171° |
| 2026-05-08 13:52 | 50.84180 | -0.29209 | 21112 ft | 393 kts | 172° |
| 2026-05-08 13:52 | 50.81471 | -0.28421 | 21536 ft | 398 kts | 172° |
| 2026-05-08 13:53 | 50.78734 | -0.27628 | 22004 ft | 402 kts | 171° |
| 2026-05-08 13:53 | 50.75976 | -0.26739 | 22442 ft | 407 kts | 166° |
| 2026-05-08 13:53 | 50.73318 | -0.25122 | 22890 ft | 413 kts | 154° |
| 2026-05-08 13:53 | 50.70887 | -0.22649 | 23320 ft | 419 kts | 141° |
| 2026-05-08 13:54 | 50.68814 | -0.19378 | 23713 ft | 425 kts | 128° |
| 2026-05-08 13:54 | 50.67210 | -0.15448 | 24069 ft | 428 kts | 116° |
| 2026-05-08 13:54 | 50.65915 | -0.11203 | 24439 ft | 431 kts | 115° |
| 2026-05-08 13:54 | 50.64608 | -0.06934 | 24811 ft | 434 kts | 115° |
| 2026-05-08 13:55 | 50.63284 | -0.02640 | 25035 ft | 437 kts | 116° |
| 2026-05-08 13:55 | 50.61959 | 0.01630 | 25094 ft | 430 kts | 115° |
| 2026-05-08 13:55 | 50.59346 | 0.10021 | 25095 ft | 425 kts | 115° |
| 2026-05-08 13:56 | 50.58044 | 0.14198 | 25092 ft | 425 kts | 115° |
| 2026-05-08 13:56 | 50.56743 | 0.18368 | 25092 ft | 425 kts | 115° |
| 2026-05-08 13:56 | 50.55442 | 0.22541 | 25092 ft | 425 kts | 115° |
| 2026-05-08 13:56 | 50.54139 | 0.26710 | 25092 ft | 425 kts | 115° |
| 2026-05-08 13:57 | 50.52836 | 0.30875 | 25091 ft | 425 kts | 115° |
| 2026-05-08 13:57 | 50.51531 | 0.35041 | 25092 ft | 425 kts | 115° |
| 2026-05-08 13:57 | 50.50225 | 0.39197 | 25088 ft | 425 kts | 115° |
| 2026-05-08 13:57 | 50.48915 | 0.43355 | 25086 ft | 424 kts | 116° |
| 2026-05-08 13:58 | 50.47417 | 0.47344 | 25099 ft | 425 kts | 125° |
| 2026-05-08 13:58 | 50.45516 | 0.50893 | 25103 ft | 425 kts | 135° |
| 2026-05-08 13:58 | 50.43291 | 0.53921 | 25104 ft | 424 kts | 141° |
| 2026-05-08 13:58 | 50.40993 | 0.56811 | 25091 ft | 423 kts | 141° |
| 2026-05-08 13:59 | 50.38695 | 0.59700 | 25076 ft | 424 kts | 141° |
| 2026-05-08 13:59 | 50.36394 | 0.62593 | 25071 ft | 424 kts | 141° |
| 2026-05-08 13:59 | 50.34090 | 0.65486 | 25068 ft | 425 kts | 141° |
| 2026-05-08 13:59 | 50.31783 | 0.68381 | 25062 ft | 425 kts | 141° |
| 2026-05-08 14:00 | 50.29477 | 0.71278 | 25061 ft | 425 kts | 141° |
| 2026-05-08 14:00 | 50.27168 | 0.74177 | 25062 ft | 426 kts | 141° |
| 2026-05-08 14:00 | 50.24853 | 0.77069 | 25063 ft | 426 kts | 142° |
| 2026-05-08 14:00 | 50.22537 | 0.79954 | 25045 ft | 425 kts | 141° |
| 2026-05-08 14:01 | 50.20250 | 0.82811 | 24817 ft | 416 kts | 141° |
| 2026-05-08 14:01 | 50.18005 | 0.85616 | 24573 ft | 412 kts | 142° |
| 2026-05-08 14:01 | 50.15763 | 0.88408 | 24337 ft | 412 kts | 142° |
| 2026-05-08 14:01 | 50.13530 | 0.91195 | 24098 ft | 411 kts | 142° |
| 2026-05-08 14:02 | 50.11311 | 0.93951 | 23886 ft | 406 kts | 142° |
| 2026-05-08 14:02 | 50.09034 | 0.96763 | 23651 ft | 429 kts | 142° |
| 2026-05-08 14:02 | 50.06654 | 0.99665 | 23374 ft | 438 kts | 144° |
| 2026-05-08 14:02 | 50.04043 | 1.02111 | 23107 ft | 438 kts | 155° |
| 2026-05-08 14:03 | 50.01309 | 1.04171 | 22826 ft | 436 kts | 155° |
| 2026-05-08 14:03 | 49.98588 | 1.06216 | 22552 ft | 433 kts | 155° |
| 2026-05-08 14:03 | 49.95886 | 1.08244 | 22265 ft | 431 kts | 155° |
| 2026-05-08 14:03 | 49.93178 | 1.10271 | 22004 ft | 432 kts | 155° |
| 2026-05-08 14:04 | 49.90473 | 1.12286 | 21734 ft | 430 kts | 155° |
| 2026-05-08 14:04 | 49.87786 | 1.14284 | 21469 ft | 427 kts | 155° |
| 2026-05-08 14:04 | 49.85120 | 1.16274 | 21210 ft | 424 kts | 155° |
| 2026-05-08 14:04 | 49.82504 | 1.18208 | 20954 ft | 421 kts | 155° |
| 2026-05-08 14:05 | 49.79839 | 1.20185 | 20695 ft | 418 kts | 155° |
| 2026-05-08 14:05 | 49.77232 | 1.22134 | 20438 ft | 414 kts | 155° |
| 2026-05-08 14:05 | 49.74647 | 1.24077 | 20193 ft | 411 kts | 155° |
| 2026-05-08 14:05 | 49.72141 | 1.26179 | 19933 ft | 410 kts | 146° |
| 2026-05-08 14:06 | 49.69856 | 1.28793 | 19682 ft | 408 kts | 144° |
| 2026-05-08 14:06 | 49.67592 | 1.31419 | 19445 ft | 405 kts | 144° |
| 2026-05-08 14:06 | 49.65342 | 1.34029 | 19201 ft | 403 kts | 144° |
| 2026-05-08 14:06 | 49.63113 | 1.36604 | 18957 ft | 398 kts | 146° |
| 2026-05-08 14:07 | 49.60685 | 1.38554 | 18722 ft | 392 kts | 159° |
| 2026-05-08 14:07 | 49.58189 | 1.40089 | 18241 ft | 379 kts | 160° |
| 2026-05-08 14:07 | 49.55712 | 1.41595 | 16620 ft | 387 kts | 159° |
| 2026-05-08 14:07 | 49.53176 | 1.43125 | 14965 ft | 395 kts | 159° |
| 2026-05-08 14:08 | 49.51471 | 1.44152 | 14007 ft | 398 kts | 160° |
| 2026-05-08 14:08 | 49.48915 | 1.45691 | 12955 ft | 387 kts | 159° |
| 2026-05-08 14:08 | 49.46498 | 1.47148 | 12669 ft | 359 kts | 159° |
| 2026-05-08 14:08 | 49.44261 | 1.48497 | 12399 ft | 333 kts | 159° |
| 2026-05-08 14:09 | 49.42167 | 1.49757 | 12134 ft | 315 kts | 159° |
| 2026-05-08 14:09 | 49.40141 | 1.50973 | 11884 ft | 311 kts | 159° |
| 2026-05-08 14:09 | 49.38128 | 1.52181 | 11636 ft | 310 kts | 159° |
| 2026-05-08 14:09 | 49.36121 | 1.53386 | 11383 ft | 310 kts | 159° |
| 2026-05-08 14:10 | 49.34125 | 1.54588 | 11129 ft | 306 kts | 157° |
| 2026-05-08 14:10 | 49.32289 | 1.56221 | 10877 ft | 305 kts | 140° |
| 2026-05-08 14:10 | 49.30865 | 1.58605 | 10627 ft | 304 kts | 123° |
| 2026-05-08 14:10 | 49.29976 | 1.61516 | 10388 ft | 302 kts | 106° |
| 2026-05-08 14:11 | 49.29668 | 1.64679 | 10143 ft | 301 kts | 94° |
| 2026-05-08 14:11 | 49.29538 | 1.67854 | 9943 ft | 294 kts | 94° |
| 2026-05-08 14:11 | 49.29372 | 1.70912 | 9810 ft | 284 kts | 100° |
| 2026-05-08 14:11 | 49.28746 | 1.73749 | 9670 ft | 281 kts | 119° |
| 2026-05-08 14:12 | 49.27584 | 1.76138 | 9545 ft | 281 kts | 136° |
| 2026-05-08 14:12 | 49.25995 | 1.77870 | 9413 ft | 282 kts | 155° |
| 2026-05-08 14:12 | 49.24198 | 1.79090 | 9275 ft | 284 kts | 157° |
| 2026-05-08 14:12 | 49.22391 | 1.80302 | 9148 ft | 284 kts | 156° |
| 2026-05-08 14:13 | 49.20561 | 1.81536 | 9012 ft | 283 kts | 156° |
| 2026-05-08 14:13 | 49.18762 | 1.82752 | 8918 ft | 282 kts | 157° |
| 2026-05-08 14:13 | 49.16965 | 1.83963 | 8780 ft | 282 kts | 157° |
| 2026-05-08 14:13 | 49.15172 | 1.85170 | 8605 ft | 281 kts | 156° |
| 2026-05-08 14:14 | 49.13384 | 1.86371 | 8420 ft | 281 kts | 156° |
| 2026-05-08 14:14 | 49.11597 | 1.87570 | 8240 ft | 280 kts | 156° |
| 2026-05-08 14:14 | 49.09818 | 1.88766 | 8061 ft | 279 kts | 156° |
| 2026-05-08 14:14 | 49.08040 | 1.89960 | 7865 ft | 279 kts | 156° |
| 2026-05-08 14:15 | 49.06269 | 1.91145 | 7695 ft | 278 kts | 157° |
| 2026-05-08 14:15 | 49.04486 | 1.92336 | 7499 ft | 278 kts | 157° |
| 2026-05-08 14:15 | 49.02732 | 1.93510 | 7325 ft | 274 kts | 157° |
| 2026-05-08 14:15 | 49.01107 | 1.94923 | 7113 ft | 266 kts | 140° |
| 2026-05-08 14:16 | 48.99917 | 1.97002 | 6917 ft | 258 kts | 121° |
| 2026-05-08 14:16 | 48.99246 | 1.99529 | 6691 ft | 252 kts | 103° |
| 2026-05-08 14:16 | 48.98845 | 2.02084 | 6481 ft | 245 kts | 103° |
| 2026-05-08 14:16 | 48.98442 | 2.04607 | 6263 ft | 239 kts | 103° |
| 2026-05-08 14:17 | 48.98052 | 2.07029 | 6060 ft | 232 kts | 103° |
| 2026-05-08 14:17 | 48.97669 | 2.09394 | 5862 ft | 229 kts | 103° |
| 2026-05-08 14:17 | 48.97291 | 2.11738 | 5676 ft | 227 kts | 103° |
| 2026-05-08 14:17 | 48.97020 | 2.14097 | 5477 ft | 226 kts | 92° |
| 2026-05-08 14:18 | 48.97059 | 2.16499 | 5284 ft | 223 kts | 85° |
| 2026-05-08 14:18 | 48.97191 | 2.18833 | 5156 ft | 219 kts | 84° |
| 2026-05-08 14:18 | 48.97325 | 2.21125 | 4916 ft | 216 kts | 84° |
| 2026-05-08 14:18 | 48.97455 | 2.23397 | 4629 ft | 215 kts | 84° |
| 2026-05-08 14:19 | 48.97584 | 2.25665 | 4345 ft | 215 kts | 84° |
| 2026-05-08 14:19 | 48.97713 | 2.27939 | 4044 ft | 216 kts | 84° |
| 2026-05-08 14:19 | 48.97841 | 2.30216 | 3762 ft | 216 kts | 84° |
| 2026-05-08 14:19 | 48.97969 | 2.32494 | 3479 ft | 215 kts | 84° |
| 2026-05-08 14:20 | 48.98091 | 2.34681 | 3206 ft | 199 kts | 85° |
| 2026-05-08 14:20 | 48.98203 | 2.36702 | 2943 ft | 186 kts | 84° |
| 2026-05-08 14:20 | 48.98312 | 2.38715 | 2614 ft | 179 kts | 85° |
| 2026-05-08 14:20 | 48.98394 | 2.40499 | 2230 ft | 178 kts | 85° |
| 2026-05-08 14:21 | 48.98493 | 2.42350 | 1867 ft | 172 kts | 83° |
| 2026-05-08 14:21 | 48.98628 | 2.44121 | 1746 ft | 159 kts | 85° |
| 2026-05-08 14:21 | 48.98663 | 2.45784 | 1535 ft | 160 kts | 88° |
| 2026-05-08 14:21 | 48.98787 | 2.47486 | 1425 ft | 162 kts | 80° |
| 2026-05-08 14:22 | 48.98914 | 2.49204 | 1269 ft | 168 kts | 88° |
| 2026-05-08 14:22 | 48.98979 | 2.50998 | 1129 ft | 166 kts | 84° |
| 2026-05-08 14:22 | 48.99087 | 2.52698 | 908 ft | 162 kts | 82° |
| 2026-05-08 14:22 | 48.99190 | 2.54422 | 682 ft | 168 kts | 85° |
| 2026-05-08 14:23 | 48.99274 | 2.56164 | 476 ft | 155 kts | 84° |
| 2026-05-08 14:23 | 48.99359 | 2.57677 | 355 ft | 129 kts | 85° |
| 2026-05-08 14:23 | 48.99413 | 2.58779 | 359 ft | 79 kts | 83° |
| 2026-05-08 14:23 | 48.99499 | 2.59359 | 358 ft | 42 kts | 65° |
| 2026-05-08 14:24 | 48.99569 | 2.59595 | 355 ft | 0 kts | 65° |
| 2026-05-08 14:24 | 48.99569 | 2.59596 | 355 ft | 1 kts | 65° |
| 2026-05-08 14:24 | 48.99589 | 2.59648 | 362 ft | 9 kts | 48° |
| 2026-05-08 14:24 | 48.99662 | 2.59678 | 354 ft | 12 kts | 2° |
| 2026-05-08 14:25 | 48.99753 | 2.59673 | 356 ft | 15 kts | 358° |
| 2026-05-08 14:25 | 48.99864 | 2.59664 | 353 ft | 16 kts | 356° |
| 2026-05-08 14:25 | 48.99876 | 2.59663 | 353 ft | 0 kts | 356° |
| 2026-05-08 14:26 | 48.99914 | 2.59659 | 361 ft | 7 kts | 356° |
| 2026-05-08 14:26 | 48.99958 | 2.59654 | 354 ft | 5 kts | 352° |
| 2026-05-08 14:26 | 48.99980 | 2.59591 | 357 ft | 11 kts | 277° |
| 2026-05-08 14:26 | 48.99992 | 2.59567 | 360 ft | 1 kts | 350° |
| 2026-05-08 14:27 | 48.99994 | 2.59568 | 359 ft | 0 kts | 359° |
| 2026-05-08 14:27 | 49.00000 | 2.59559 | 357 ft | 7 kts | 322° |
| 2026-05-08 14:27 | 49.00056 | 2.59507 | 354 ft | 9 kts | 350° |
| 2026-05-08 14:27 | 49.00111 | 2.59497 | 354 ft | 7 kts | 356° |
| 2026-05-08 14:28 | 49.00156 | 2.59493 | 354 ft | 6 kts | 356° |
| 2026-05-08 14:28 | 49.00226 | 2.59484 | 354 ft | 22 kts | 354° |
| 2026-05-08 14:28 | 49.00402 | 2.59462 | 354 ft | 26 kts | 355° |
| 2026-05-08 14:28 | 49.00586 | 2.59439 | 354 ft | 26 kts | 353° |
| 2026-05-08 14:29 | 49.00768 | 2.59414 | 354 ft | 27 kts | 357° |
| 2026-05-08 14:29 | 49.00881 | 2.59322 | 358 ft | 13 kts | 253° |
| 2026-05-08 14:29 | 49.00874 | 2.59244 | 357 ft | 11 kts | 268° |
| 2026-05-08 14:29 | 49.00871 | 2.59135 | 354 ft | 10 kts | 268° |
| 2026-05-08 14:30 | 49.00869 | 2.59033 | 354 ft | 9 kts | 267° |
| 2026-05-08 14:30 | 49.00863 | 2.58942 | 359 ft | 11 kts | 264° |
| 2026-05-08 14:30 | 49.00852 | 2.58790 | 360 ft | 14 kts | 264° |
| 2026-05-08 14:30 | 49.00841 | 2.58646 | 354 ft | 13 kts | 263° |
| 2026-05-08 14:31 | 49.00833 | 2.58515 | 354 ft | 12 kts | 266° |
| 2026-05-08 14:31 | 49.00828 | 2.58393 | 361 ft | 10 kts | 265° |
| 2026-05-08 14:31 | 49.00818 | 2.58188 | 354 ft | 32 kts | 265° |
| 2026-05-08 14:32 | 49.00780 | 2.57507 | 361 ft | 32 kts | 263° |
| 2026-05-08 14:32 | 49.00748 | 2.57231 | 361 ft | 15 kts | 208° |
| 2026-05-08 14:32 | 49.00692 | 2.57185 | 359 ft | 10 kts | 244° |
| 2026-05-08 14:32 | 49.00664 | 2.57039 | 363 ft | 17 kts | 258° |
| 2026-05-08 14:33 | 49.00651 | 2.56848 | 357 ft | 20 kts | 266° |
| 2026-05-08 14:33 | 49.00632 | 2.56620 | 354 ft | 24 kts | 267° |
| 2026-05-08 14:33 | 49.00620 | 2.56341 | 358 ft | 28 kts | 264° |
| 2026-05-08 14:33 | 49.00594 | 2.56039 | 354 ft | 28 kts | 252° |
| 2026-05-08 14:34 | 49.00572 | 2.55930 | 357 ft | 0 kts | 252° |
| 2026-05-08 14:34 | 49.00561 | 2.55936 | 358 ft | 4 kts | 151° |
| 2026-05-08 14:34 | 49.00525 | 2.55952 | 362 ft | 9 kts | 174° |
| 2026-05-08 14:35 | 49.00488 | 2.55955 | 354 ft | 3 kts | 172° |
| 2026-05-08 14:35 | 49.00476 | 2.55957 | 358 ft | 0 kts | 173° |